createdAt,value
2018-01-01T00:01:09.039Z,63.80
2018-01-01T00:03:39.623Z,63.40
2018-01-01T00:08:38.442Z,62.20
2018-01-01T00:11:07.273Z,60.70
2018-01-01T00:13:35.902Z,60.60
2018-01-01T00:18:35.560Z,59.30
2018-01-01T00:21:04.585Z,58.90
2018-01-01T00:23:33.304Z,58.60
2018-01-01T00:26:02.509Z,58.50
2018-01-01T00:28:31.196Z,58.80
2018-01-01T00:31:00.556Z,58.80
2018-01-01T00:33:30.105Z,58.80
2018-01-01T00:35:59.200Z,58.90
2018-01-01T00:38:28.294Z,58.70
2018-01-01T00:40:58.517Z,58.70
2018-01-01T00:43:27.617Z,58.30
2018-01-01T00:48:26.931Z,57.60
2018-01-01T00:50:56.033Z,57.40
2018-01-01T00:55:56.415Z,57.70
2018-01-01T00:58:26.388Z,57.70
2018-01-01T01:00:55.176Z,58.30
2018-01-01T01:03:24.681Z,58.30
2018-01-01T01:10:53.915Z,57.80
2018-01-01T01:13:23.623Z,57.10
2018-01-01T01:15:53.231Z,57.10
2018-01-01T01:18:21.917Z,57.70
2018-01-01T01:23:20.722Z,57.60
2018-01-01T01:25:49.929Z,57.50
2018-01-01T01:28:19.632Z,57.70
2018-01-01T01:30:49.548Z,57.60
2018-01-01T01:33:19.173Z,57.80
2018-01-01T01:35:48.049Z,57.70
2018-01-01T01:38:17.144Z,57.90
2018-01-01T01:40:47.484Z,57.50
2018-01-01T01:48:17.313Z,58.00
2018-01-01T01:50:46.102Z,58.20
2018-01-01T01:53:14.992Z,58.00
2018-01-01T01:55:44.093Z,58.40
2018-01-01T02:00:43.920Z,58.50
2018-01-01T02:03:13.780Z,58.20
2018-01-01T02:05:42.528Z,58.20
2018-01-01T02:08:12.032Z,58.20
2018-01-01T02:10:41.393Z,58.40
2018-01-01T02:13:11.811Z,58.40
2018-01-01T02:18:11.655Z,58.80
2018-01-01T02:20:41.298Z,58.50
2018-01-01T02:23:10.184Z,58.50
2018-01-01T02:25:39.692Z,58.70
2018-01-01T02:33:10.666Z,58.10
2018-01-01T02:35:41.093Z,58.30
2018-01-01T02:38:10.201Z,58.20
2018-01-01T02:40:39.802Z,58.00
2018-01-01T02:43:08.594Z,58.10
2018-01-01T02:45:38.657Z,58.10
2018-01-01T02:50:38.080Z,58.30
2018-01-01T02:53:06.828Z,58.30
2018-01-01T02:58:06.856Z,58.20
2018-01-01T03:00:36.095Z,57.90
2018-01-01T03:05:35.169Z,57.90
2018-01-01T03:08:04.367Z,58.10
2018-01-01T03:10:33.967Z,58.20
2018-01-01T03:13:02.762Z,58.10
2018-01-01T03:15:31.550Z,58.20
2018-01-01T03:18:00.333Z,58.00
2018-01-01T03:22:59.650Z,58.40
2018-01-01T03:25:29.673Z,58.10
2018-01-01T03:27:58.765Z,58.10
2018-01-01T03:30:27.560Z,58.20
2018-01-01T03:32:57.264Z,57.90
2018-01-01T03:35:26.053Z,58.00
2018-01-01T03:37:55.359Z,57.60
2018-01-01T03:42:54.155Z,57.50
2018-01-01T03:45:23.249Z,57.40
2018-01-01T03:47:52.447Z,57.20
2018-01-01T03:50:21.136Z,56.90
2018-01-01T03:52:49.921Z,56.80
2018-01-01T03:55:18.710Z,57.10
2018-01-01T03:57:48.510Z,56.70
2018-01-01T04:00:17.721Z,56.40
2018-01-01T04:02:47.990Z,56.90
2018-01-01T04:05:16.734Z,56.70
2018-01-01T04:07:45.828Z,56.60
2018-01-01T04:10:14.722Z,56.60
2018-01-01T04:12:43.948Z,56.60
2018-01-01T04:15:13.117Z,56.50
2018-01-01T04:17:42.628Z,56.30
2018-01-01T04:20:12.812Z,56.90
2018-01-01T04:22:42.458Z,56.90
2018-01-01T04:25:12.618Z,56.50
2018-01-01T04:27:42.082Z,55.70
2018-01-01T04:32:41.292Z,56.00
2018-01-01T04:35:10.490Z,56.50
2018-01-01T04:37:40.096Z,56.50
2018-01-01T04:40:08.910Z,56.30
2018-01-01T04:42:37.677Z,55.90
2018-01-01T04:45:06.464Z,56.00
2018-01-01T04:47:35.252Z,55.90
2018-01-01T04:50:04.044Z,55.80
2018-01-01T04:52:32.931Z,56.10
2018-01-01T04:55:01.823Z,56.20
2018-01-01T04:57:31.430Z,56.10
2018-01-01T05:00:00.220Z,56.40
2018-01-01T05:02:29.112Z,56.40
2018-01-01T05:04:58.723Z,56.20
2018-01-01T05:07:27.509Z,56.30
2018-01-01T05:09:57.667Z,56.30
2018-01-01T05:12:26.324Z,56.40
2018-01-01T05:14:55.866Z,56.30
2018-01-01T05:17:24.710Z,56.70
2018-01-01T05:19:54.786Z,56.60
2018-01-01T05:22:23.517Z,56.50
2018-01-01T05:24:52.409Z,56.50
2018-01-01T05:27:21.812Z,56.30
2018-01-01T05:29:50.502Z,56.70
2018-01-01T05:32:19.185Z,56.70
2018-01-01T05:34:47.973Z,56.90
2018-01-01T05:37:17.885Z,57.00
2018-01-01T05:39:48.209Z,56.40
2018-01-01T05:44:46.913Z,56.70
2018-01-01T05:47:15.605Z,56.50
2018-01-01T05:49:44.490Z,56.70
2018-01-01T05:52:14.363Z,56.90
2018-01-01T05:54:44.160Z,56.30
2018-01-01T05:57:12.908Z,56.40
2018-01-01T05:59:41.696Z,55.90
2018-01-01T06:02:10.790Z,56.10
2018-01-01T06:04:39.578Z,56.10
2018-01-01T06:07:08.572Z,56.30
2018-01-01T06:09:37.272Z,56.30
2018-01-01T06:12:06.156Z,56.20
2018-01-01T06:14:35.114Z,56.30
2018-01-01T06:17:04.546Z,57.00
2018-01-01T06:19:33.232Z,56.50
2018-01-01T06:22:02.580Z,56.60
2018-01-01T06:24:31.901Z,56.50
2018-01-01T06:27:02.310Z,56.40
2018-01-01T06:29:31.722Z,56.60
2018-01-01T06:32:01.200Z,57.00
2018-01-01T06:34:30.579Z,56.40
2018-01-01T06:37:00.293Z,56.60
2018-01-01T06:39:29.380Z,56.80
2018-01-01T06:41:58.611Z,56.90
2018-01-01T06:44:28.233Z,57.00
2018-01-01T06:46:57.727Z,57.00
2018-01-01T06:49:27.398Z,56.90
2018-01-01T06:51:56.826Z,57.20
2018-01-01T06:54:26.728Z,57.50
2018-01-01T06:56:56.324Z,57.30
2018-01-01T06:59:26.618Z,57.00
2018-01-01T07:01:56.192Z,56.90
2018-01-01T07:04:25.862Z,56.80
2018-01-01T07:06:55.021Z,56.90
2018-01-01T07:09:23.951Z,57.00
2018-01-01T07:11:53.016Z,57.00
2018-01-01T07:14:22.068Z,57.00
2018-01-01T07:16:51.906Z,57.40
2018-01-01T07:19:20.951Z,57.00
2018-01-01T07:21:50.869Z,56.80
2018-01-01T07:24:20.371Z,56.90
2018-01-01T07:26:49.164Z,56.80
2018-01-01T07:29:17.854Z,56.70
2018-01-01T07:31:46.601Z,56.40
2018-01-01T07:34:15.428Z,56.40
2018-01-01T07:36:44.218Z,56.40
2018-01-01T07:39:13.105Z,56.50
2018-01-01T07:41:41.798Z,56.30
2018-01-01T07:46:41.928Z,56.20
2018-01-01T07:49:11.740Z,56.10
2018-01-01T07:51:41.040Z,56.00
2018-01-01T07:54:09.930Z,56.20
2018-01-01T07:56:39.451Z,56.20
2018-01-01T07:59:08.177Z,56.70
2018-01-01T08:01:36.912Z,56.30
2018-01-01T08:04:06.114Z,56.10
2018-01-01T08:09:05.018Z,56.00
2018-01-01T08:11:34.557Z,55.70
2018-01-01T08:14:03.835Z,56.10
2018-01-01T08:16:32.718Z,55.80
2018-01-01T08:19:01.503Z,56.00
2018-01-01T08:21:30.397Z,55.20
2018-01-01T08:23:59.184Z,55.30
2018-01-01T08:26:28.792Z,55.30
2018-01-01T08:28:57.887Z,55.00
2018-01-01T08:31:26.578Z,54.80
2018-01-01T08:33:55.471Z,54.60
2018-01-01T08:36:25.086Z,54.40
2018-01-01T08:38:53.862Z,54.50
2018-01-01T08:41:22.751Z,54.40
2018-01-01T08:43:51.849Z,54.50
2018-01-01T08:46:20.536Z,54.40
2018-01-01T08:48:49.325Z,54.00
2018-01-01T08:51:18.212Z,53.80
2018-01-01T08:53:47.326Z,53.70
2018-01-01T08:56:16.743Z,53.70
2018-01-01T08:58:45.703Z,54.20
2018-01-01T09:01:15.727Z,53.50
2018-01-01T09:03:45.844Z,53.30
2018-01-01T09:06:15.651Z,53.10
2018-01-01T09:08:44.749Z,53.50
2018-01-01T09:11:13.640Z,53.00
2018-01-01T09:13:42.428Z,53.40
2018-01-01T09:18:42.663Z,53.00
2018-01-01T09:21:11.870Z,53.10
2018-01-01T09:23:41.883Z,53.00
2018-01-01T09:26:10.675Z,52.80
2018-01-01T09:28:39.564Z,52.80
2018-01-01T09:31:08.454Z,52.80
2018-01-01T09:33:37.581Z,53.20
2018-01-01T09:36:06.749Z,52.30
2018-01-01T09:38:35.541Z,52.30
2018-01-01T09:41:04.591Z,52.60
2018-01-01T09:43:33.420Z,52.30
2018-01-01T09:46:03.625Z,52.60
2018-01-01T09:48:33.861Z,52.60
2018-01-01T09:51:03.372Z,52.60
2018-01-01T09:53:32.877Z,52.20
2018-01-01T09:56:03.206Z,52.70
2018-01-01T09:58:32.248Z,51.80
2018-01-01T10:01:01.419Z,51.80
2018-01-01T10:03:31.621Z,51.70
2018-01-01T10:06:01.123Z,52.30
2018-01-01T10:08:29.808Z,51.10
2018-01-01T10:10:59.619Z,51.20
2018-01-01T10:13:28.817Z,51.30
2018-01-01T10:15:58.424Z,51.50
2018-01-01T10:18:27.112Z,50.60
2018-01-01T10:20:56.107Z,51.00
2018-01-01T10:23:26.175Z,50.60
2018-01-01T10:25:54.911Z,50.60
2018-01-01T10:28:25.805Z,50.40
2018-01-01T10:33:25.174Z,51.00
2018-01-01T10:35:55.187Z,50.10
2018-01-01T10:38:25.680Z,50.20
2018-01-01T10:40:55.220Z,50.20
2018-01-01T10:43:24.631Z,50.80
2018-01-01T10:45:53.820Z,49.90
2018-01-01T10:48:24.048Z,49.40
2018-01-01T10:50:52.730Z,49.50
2018-01-01T10:53:22.953Z,49.10
2018-01-01T10:55:52.047Z,49.10
2018-01-01T10:58:20.733Z,49.20
2018-01-01T11:03:20.002Z,49.50
2018-01-01T11:05:49.459Z,50.20
2018-01-01T11:08:18.247Z,49.70
2018-01-01T11:10:46.931Z,49.30
2018-01-01T11:13:17.255Z,48.80
2018-01-01T11:15:46.762Z,49.10
2018-01-01T11:18:15.450Z,48.80
2018-01-01T11:20:44.137Z,49.30
2018-01-01T11:23:13.342Z,48.60
2018-01-01T11:25:43.559Z,48.50
2018-01-01T11:28:13.570Z,48.40
2018-01-01T11:30:42.598Z,48.00
2018-01-01T11:33:12.067Z,48.20
2018-01-01T11:35:41.457Z,47.90
2018-01-01T11:38:10.549Z,48.00
2018-01-01T11:40:40.080Z,47.60
2018-01-01T11:43:08.968Z,47.10
2018-01-01T11:45:38.556Z,46.90
2018-01-01T11:48:07.365Z,47.20
2018-01-01T11:50:36.868Z,47.10
2018-01-01T11:55:37.210Z,47.10
2018-01-01T11:58:06.879Z,46.70
2018-01-01T12:00:36.836Z,46.00
2018-01-01T12:03:06.137Z,46.20
2018-01-01T12:05:36.357Z,46.50
2018-01-01T12:08:05.809Z,46.40
2018-01-01T12:10:35.166Z,46.20
2018-01-01T12:15:34.279Z,44.00
2018-01-01T12:18:04.497Z,43.20
2018-01-01T12:20:33.699Z,43.20
2018-01-01T12:23:02.998Z,42.70
2018-01-01T12:25:32.299Z,43.00
2018-01-01T12:28:01.816Z,43.10
2018-01-01T12:30:32.447Z,43.40
2018-01-01T12:44:24.341Z,44.60
2018-01-01T12:46:53.750Z,44.80
2018-01-01T12:49:23.767Z,44.80
2018-01-01T12:51:52.660Z,44.80
2018-01-01T12:56:52.269Z,43.10
2018-01-01T13:02:09.156Z,43.20
2018-01-01T13:07:14.806Z,42.60
2018-01-01T13:09:44.379Z,42.70
2018-01-01T13:12:14.710Z,42.40
2018-01-01T13:14:44.936Z,42.20
2018-01-01T13:17:21.294Z,41.70
2018-01-01T13:19:49.981Z,41.40
2018-01-01T13:22:18.669Z,41.70
2018-01-01T13:24:47.560Z,42.30
2018-01-01T13:27:17.065Z,41.60
2018-01-01T13:29:46.681Z,41.50
2018-01-01T13:32:16.984Z,41.10
2018-01-01T13:34:51.933Z,41.30
2018-01-01T13:37:21.625Z,41.10
2018-01-01T13:39:50.326Z,41.50
2018-01-01T13:42:19.216Z,42.00
2018-01-01T13:47:18.851Z,41.60
2018-01-01T13:49:48.754Z,42.30
2018-01-01T13:52:18.775Z,42.20
2018-01-01T13:54:47.869Z,42.10
2018-01-01T13:57:17.888Z,42.30
2018-01-01T13:59:47.904Z,42.20
2018-01-01T14:02:17.716Z,42.50
2018-01-01T14:04:47.529Z,42.90
2018-01-01T14:07:16.980Z,42.90
2018-01-01T14:09:47.346Z,43.00
2018-01-01T14:12:17.374Z,43.60
2018-01-01T14:14:48.114Z,44.20
2018-01-01T14:17:17.332Z,43.80
2018-01-01T14:19:46.882Z,43.90
2018-01-01T14:22:17.029Z,44.00
2018-01-01T14:29:47.804Z,45.00
2018-01-01T14:32:17.399Z,44.50
2018-01-01T14:34:46.923Z,44.00
2018-01-01T14:37:16.445Z,44.40
2018-01-01T14:39:46.030Z,44.10
2018-01-01T14:42:16.389Z,44.10
2018-01-01T14:47:16.830Z,44.80
2018-01-01T14:49:47.582Z,44.20
2018-01-01T14:52:17.550Z,44.30
2018-01-01T14:54:46.576Z,44.90
2018-01-01T14:57:15.642Z,44.30
2018-01-01T14:59:46.280Z,44.40
2018-01-01T15:02:15.219Z,44.70
2018-01-01T15:04:47.131Z,44.70
2018-01-01T15:07:16.848Z,45.20
2018-01-01T15:12:18.793Z,44.80
2018-01-01T15:14:49.146Z,45.20
2018-01-01T15:17:20.284Z,45.00
2018-01-01T15:19:49.966Z,44.90
2018-01-01T15:22:20.704Z,44.80
2018-01-01T15:24:56.097Z,45.30
2018-01-01T15:27:26.883Z,44.80
2018-01-01T15:29:56.107Z,44.70
2018-01-01T15:32:25.262Z,44.40
2018-01-01T15:34:56.144Z,44.60
2018-01-01T15:37:25.874Z,44.80
2018-01-01T15:39:55.183Z,44.40
2018-01-01T15:42:25.696Z,44.30
2018-01-01T15:44:55.208Z,44.30
2018-01-01T15:47:25.326Z,44.30
2018-01-01T15:49:54.651Z,44.30
2018-01-01T15:52:25.287Z,44.40
2018-01-01T15:54:55.101Z,44.70
2018-01-01T15:57:25.198Z,45.10
2018-01-01T15:59:54.731Z,44.60
2018-01-01T16:02:25.642Z,44.60
2018-01-01T16:04:55.346Z,44.70
2018-01-01T16:07:24.880Z,45.00
2018-01-01T16:09:54.872Z,44.60
2018-01-01T16:12:24.986Z,44.90
2018-01-01T16:14:54.905Z,44.90
2018-01-01T16:17:25.752Z,45.10
2018-01-01T16:19:55.315Z,45.20
2018-01-01T16:22:25.466Z,45.30
2018-01-01T16:24:55.693Z,45.90
2018-01-01T16:27:25.081Z,45.70
2018-01-01T16:29:55.418Z,46.10
2018-01-01T16:32:25.023Z,45.70
2018-01-01T16:34:55.179Z,45.90
2018-01-01T16:37:25.597Z,45.90
2018-01-01T16:39:56.204Z,45.80
2018-01-01T16:42:26.464Z,46.30
2018-01-01T16:44:56.782Z,46.40
2018-01-01T16:49:59.654Z,45.70
2018-01-01T16:55:00.325Z,45.90
2018-01-01T16:57:30.922Z,46.00
2018-01-01T17:00:03.242Z,46.00
2018-01-01T17:02:32.736Z,46.10
2018-01-01T17:05:02.424Z,46.20
2018-01-01T17:07:32.155Z,46.30
2018-01-01T17:10:02.248Z,46.00
2018-01-01T17:12:32.498Z,46.10
2018-01-01T17:15:03.116Z,46.80
2018-01-01T17:17:32.607Z,46.40
2018-01-01T17:20:03.171Z,46.60
2018-01-01T17:22:32.687Z,46.30
2018-01-01T17:25:03.020Z,46.20
2018-01-01T17:27:34.223Z,46.30
2018-01-01T17:30:03.919Z,46.20
2018-01-01T17:35:05.676Z,46.30
2018-01-01T17:37:35.143Z,46.30
2018-01-01T17:40:05.677Z,46.30
2018-01-01T17:42:36.625Z,46.40
2018-01-01T17:45:10.230Z,46.70
2018-01-01T17:47:43.956Z,46.40
2018-01-01T17:50:20.450Z,46.60
2018-01-01T17:52:49.996Z,46.40
2018-01-01T17:55:19.490Z,47.00
2018-01-01T17:57:49.423Z,46.30
2018-01-01T18:00:19.778Z,46.30
2018-01-01T18:02:49.768Z,46.50
2018-01-01T18:05:20.654Z,46.60
2018-01-01T18:07:51.699Z,46.20
2018-01-01T18:10:22.538Z,46.50
2018-01-01T18:12:52.408Z,46.30
2018-01-01T18:15:23.143Z,46.60
2018-01-01T18:17:53.350Z,46.90
2018-01-01T18:20:24.864Z,46.70
2018-01-01T18:22:55.390Z,46.70
2018-01-01T18:25:25.230Z,47.00
2018-01-01T18:27:55.358Z,46.50
2018-01-01T18:30:25.132Z,46.70
2018-01-01T18:35:26.039Z,46.70
2018-01-01T18:37:55.840Z,47.20
2018-01-01T18:40:26.747Z,47.40
2018-01-01T18:42:57.703Z,47.60
2018-01-01T18:45:27.896Z,47.30
2018-01-01T18:47:58.221Z,48.10
2018-01-01T18:50:30.222Z,48.10
2018-01-01T18:52:59.901Z,48.30
2018-01-01T18:55:31.505Z,48.00
2018-01-01T18:58:01.464Z,48.30
2018-01-01T19:00:32.863Z,48.10
2018-01-01T19:03:03.181Z,48.50
2018-01-01T19:05:32.985Z,48.70
2018-01-01T19:08:03.725Z,48.90
2018-01-01T19:10:34.520Z,49.00
2018-01-01T19:13:05.290Z,49.20
2018-01-01T19:15:36.237Z,49.70
2018-01-01T19:18:05.894Z,49.70
2018-01-01T19:20:36.055Z,49.70
2018-01-01T19:23:06.333Z,50.00
2018-01-01T19:25:36.397Z,50.00
2018-01-01T19:28:06.998Z,50.30
2018-01-01T19:30:36.828Z,50.30
2018-01-01T19:33:07.965Z,50.30
2018-01-01T19:35:38.074Z,50.20
2018-01-01T19:38:08.123Z,50.90
2018-01-01T19:43:09.048Z,51.20
2018-01-01T19:45:39.300Z,51.00
2018-01-01T19:48:09.081Z,51.40
2018-01-01T19:50:38.461Z,51.30
2018-01-01T19:53:08.126Z,51.60
2018-01-01T19:55:37.293Z,51.80
2018-01-01T19:58:06.915Z,52.40
2018-01-01T20:00:35.829Z,52.40
2018-01-01T20:03:05.159Z,53.20
2018-01-01T20:05:33.836Z,53.30
2018-01-01T20:08:02.984Z,53.80
2018-01-01T20:10:32.481Z,54.00
2018-01-01T20:13:01.583Z,54.30
2018-01-01T20:15:30.408Z,54.50
2018-01-01T20:17:59.975Z,55.10
2018-01-01T20:20:28.661Z,54.90
2018-01-01T20:22:57.351Z,55.30
2018-01-01T20:25:26.658Z,55.00
2018-01-01T20:27:56.155Z,55.40
2018-01-01T20:30:24.844Z,55.50
2018-01-01T20:32:54.757Z,55.80
2018-01-01T20:35:23.646Z,55.80
2018-01-01T20:37:52.741Z,56.00
2018-01-01T20:40:22.040Z,56.50
2018-01-01T20:42:50.727Z,56.70
2018-01-01T20:45:20.181Z,56.80
2018-01-01T20:47:49.327Z,57.00
2018-01-01T20:50:19.181Z,57.10
2018-01-01T20:52:48.386Z,56.90
2018-01-01T20:55:17.700Z,57.60
2018-01-01T21:00:16.961Z,58.40
2018-01-01T21:02:46.577Z,58.60
2018-01-01T21:05:15.354Z,59.10
2018-01-01T21:07:45.271Z,59.20
2018-01-01T21:10:15.188Z,59.50
2018-01-01T21:12:44.078Z,59.70
2018-01-01T21:15:12.967Z,60.00
2018-01-01T21:17:42.228Z,60.40
2018-01-01T21:20:11.367Z,60.40
2018-01-01T21:22:40.154Z,60.50
2018-01-01T21:25:09.565Z,60.60
2018-01-01T21:27:39.779Z,60.80
2018-01-01T21:30:08.469Z,61.60
2018-01-01T21:32:37.360Z,61.60
2018-01-01T21:35:06.149Z,61.80
2018-01-01T21:37:35.033Z,61.90
2018-01-01T21:40:03.925Z,62.00
2018-01-01T21:42:34.151Z,62.30
2018-01-01T21:45:03.038Z,62.80
2018-01-01T21:47:31.727Z,63.00
2018-01-01T21:50:01.171Z,63.00
2018-01-01T21:52:30.739Z,63.10
2018-01-01T21:54:59.628Z,63.20
2018-01-01T21:57:28.580Z,63.50
2018-01-01T21:59:58.426Z,64.40
2018-01-01T22:02:27.323Z,64.00
2018-01-01T22:04:56.011Z,63.80
2018-01-01T22:07:24.903Z,64.00
2018-01-01T22:09:54.359Z,64.20
2018-01-01T22:12:23.506Z,64.20
2018-01-01T22:14:53.685Z,65.00
2018-01-01T22:17:22.409Z,64.30
2018-01-01T22:19:51.046Z,64.10
2018-01-01T22:22:20.467Z,64.20
2018-01-01T22:24:51.082Z,64.80
2018-01-01T22:27:20.048Z,64.30
2018-01-01T22:29:49.127Z,64.00
2018-01-01T22:32:17.820Z,63.70
2018-01-01T22:34:46.694Z,63.90
2018-01-01T22:37:15.380Z,63.70
2018-01-01T22:39:44.491Z,64.00
2018-01-01T22:42:13.578Z,64.00
2018-01-01T22:44:43.694Z,63.90
2018-01-01T22:49:43.933Z,63.60
2018-01-01T22:52:12.778Z,63.90
2018-01-01T22:54:41.512Z,63.50
2018-01-01T22:57:10.253Z,63.40
2018-01-01T22:59:40.274Z,63.60
2018-01-01T23:02:09.392Z,63.40
2018-01-01T23:04:38.415Z,63.20
2018-01-01T23:07:08.248Z,63.80
2018-01-01T23:09:37.417Z,63.40
2018-01-01T23:12:06.102Z,63.50
2018-01-01T23:14:36.552Z,63.70
2018-01-01T23:17:05.736Z,64.00
2018-01-01T23:19:34.628Z,63.40
2018-01-01T23:22:03.309Z,63.30
2018-01-01T23:24:32.095Z,63.10
2018-01-01T23:27:00.927Z,63.00
2018-01-01T23:29:31.053Z,62.50
2018-01-01T23:31:59.993Z,62.30
2018-01-01T23:34:28.894Z,62.70
2018-01-01T23:36:58.398Z,62.70
2018-01-01T23:39:27.488Z,63.10
2018-01-01T23:41:56.789Z,63.00
2018-01-01T23:44:26.089Z,62.90
2018-01-01T23:46:54.778Z,62.70
2018-01-01T23:49:24.076Z,62.20
2018-01-01T23:51:52.768Z,62.20
2018-01-01T23:54:22.674Z,62.10
2018-01-01T23:56:51.361Z,62.00
2018-01-01T23:59:20.878Z,62.20
